Time;durP1;ratioP1;P1;durP2;ratioP2;P2;SDS_P1;SDS_P2;PMS_P1;PMS_P2;Temp;Humidity;BMP_temperature;BMP_pressure;BME280_temperature;BME280_humidity;BME280_pressure;Samples;Min_cycle;Max_cycle;Signal;HPM_P1;HPM_P2
2021/06/17 00:01:49;;;;;;;3.35;3.05;;;27.90;38.70;;;;;;8255158;28;20122;-52
2021/06/17 00:05:49;;;;;;;4.13;3.47;;;27.90;38.80;;;;;;8228125;28;20507;-53
2021/06/17 00:09:50;;;;;;;;;;;27.90;38.80;;;;;;8229029;28;20034;-53
2021/06/17 00:13:51;;;;;;;3.87;3.57;;;27.90;38.80;;;;;;8255731;28;19920;-52
2021/06/17 00:17:52;;;;;;;4.25;3.10;;;27.90;38.80;;;;;;8264472;28;20484;-53
2021/06/17 00:21:54;;;;;;;3.85;3.28;;;27.90;38.80;;;;;;8260008;28;20208;-52
2021/06/17 00:25:56;;;;;;;3.25;2.95;;;27.90;38.90;;;;;;8258360;28;20046;-52
2021/06/17 00:29:56;;;;;;;3.55;3.25;;;27.80;38.90;;;;;;8249800;28;20041;-51
2021/06/17 00:33:57;;;;;;;;;;;27.80;38.90;;;;;;8229234;28;20039;-53
2021/06/17 00:38:00;;;;;;;3.67;3.37;;;27.80;38.90;;;;;;8259246;28;19965;-53
2021/06/17 00:42:01;;;;;;;3.55;2.97;;;27.80;38.90;;;;;;8259739;28;20035;-54
2021/06/17 00:46:01;;;;;;;;;;;27.80;39.00;;;;;;8259938;28;20476;-53
2021/06/17 00:50:05;;;;;;;4.10;3.17;;;27.80;39.00;;;;;;8251141;28;19950;-53
2021/06/17 00:54:05;;;;;;;4.32;3.20;;;27.70;38.90;;;;;;8231520;28;20034;-53
2021/06/17 00:58:06;;;;;;;;;;;27.80;39.00;;;;;;8227670;28;20042;-53
2021/06/17 01:02:06;;;;;;;3.47;2.90;;;27.80;39.00;;;;;;8232673;28;19920;-52
2021/06/17 01:06:07;;;;;;;3.30;3.00;;;27.80;39.10;;;;;;8259335;28;20483;-51
2021/06/17 01:10:20;;;;;;;;;;;27.70;39.00;;;;;;8240290;28;20632;-53
2021/06/17 01:14:23;;;;;;;4.03;3.60;;;27.70;39.00;;;;;;8259968;28;19914;-53
2021/06/17 01:18:25;;;;;;;3.35;3.00;;;27.70;39.00;;;;;;8243930;28;20400;-51
2021/06/17 01:22:43;;;;;;;3.38;3.08;;;27.70;39.00;;;;;;8257013;28;20133;-51
2021/06/17 01:26:52;;;;;;;3.47;3.08;;;27.70;39.00;;;;;;8265046;28;20049;-51
2021/06/17 01:31:03;;;;;;;3.67;3.05;;;27.60;39.00;;;;;;8248012;28;20023;-52
2021/06/17 01:35:06;;;;;;;3.22;2.80;;;27.60;39.00;;;;;;8261565;28;20030;-52
2021/06/17 01:39:11;;;;;;;3.30;3.00;;;27.70;39.10;;;;;;8264807;28;20385;-54
2021/06/17 01:43:15;;;;;;;4.05;3.00;;;27.60;39.10;;;;;;8250991;28;20042;-50
2021/06/17 01:47:16;;;;;;;3.97;3.47;;;27.60;39.10;;;;;;8262960;28;20571;-49
2021/06/17 01:51:21;;;;;;;;;;;27.60;39.10;;;;;;8269169;28;20034;-52
2021/06/17 01:55:22;;;;;;;3.65;3.33;;;27.60;39.10;;;;;;8239080;28;20016;-51
2021/06/17 01:59:24;;;;;;;3.40;3.00;;;27.60;39.10;;;;;;8264029;28;20050;-52
2021/06/17 02:03:25;;;;;;;3.35;3.05;;;27.60;39.10;;;;;;8263944;28;20046;-51
2021/06/17 02:07:26;;;;;;;3.67;2.95;;;27.50;39.10;;;;;;8242337;28;20496;-51
2021/06/17 02:11:28;;;;;;;;;;;27.50;39.20;;;;;;8263860;28;20050;-53
2021/06/17 02:15:29;;;;;;;;;;;27.50;39.20;;;;;;8264169;28;20378;-54
2021/06/17 02:19:32;;;;;;;3.20;2.90;;;27.50;39.20;;;;;;8261892;28;20366;-51
2021/06/17 02:23:34;;;;;;;3.22;2.90;;;27.40;39.20;;;;;;8263077;28;20029;-51
2021/06/17 02:27:36;;;;;;;3.25;2.95;;;27.40;39.20;;;;;;8267959;28;20096;-54
2021/06/17 02:31:41;;;;;;;3.65;3.33;;;27.50;39.30;;;;;;8260645;28;20042;-53
2021/06/17 02:35:44;;;;;;;3.30;2.97;;;27.40;39.20;;;;;;8250563;28;20066;-51
2021/06/17 02:39:49;;;;;;;3.25;2.85;;;27.40;39.20;;;;;;8227718;28;20410;-53
2021/06/17 02:43:54;;;;;;;3.53;3.22;;;27.40;39.30;;;;;;8236923;28;20035;-52
2021/06/17 02:47:55;;;;;;;2.90;2.70;;;27.40;39.30;;;;;;8231619;28;20056;-51
2021/06/17 02:51:56;;;;;;;;;;;27.40;39.30;;;;;;8230971;28;20042;-51
2021/06/17 02:55:57;;;;;;;3.13;2.87;;;27.40;39.30;;;;;;8258672;28;19914;-51
2021/06/17 03:00:06;;;;;;;3.42;3.13;;;27.40;39.30;;;;;;8262552;28;20050;-51
2021/06/17 03:04:14;;;;;;;4.28;2.90;;;27.30;39.30;;;;;;8266324;28;20040;-52
2021/06/17 03:08:21;;;;;;;3.60;2.88;;;27.30;39.30;;;;;;8261168;28;20133;-50
2021/06/17 03:12:25;;;;;;;5.00;3.28;;;27.30;39.30;;;;;;8262279;28;20030;-49
2021/06/17 03:16:31;;;;;;;3.22;2.72;;;27.30;39.30;;;;;;8259831;28;20047;-52
2021/06/17 03:20:36;;;;;;;4.20;3.53;;;27.30;39.30;;;;;;8262051;28;20026;-53
2021/06/17 03:24:40;;;;;;;4.53;3.38;;;27.30;39.30;;;;;;8246433;28;20125;-50
2021/06/17 03:28:42;;;;;;;3.40;2.95;;;27.20;39.30;;;;;;8251731;28;20038;-51
2021/06/17 03:32:44;;;;;;;3.35;2.85;;;27.20;39.30;;;;;;8241043;28;20046;-53
2021/06/17 03:36:46;;;;;;;3.00;2.72;;;27.20;39.30;;;;;;8261148;28;20392;-52
2021/06/17 03:40:48;;;;;;;4.18;2.90;;;27.20;39.30;;;;;;8263060;28;20078;-50
2021/06/17 03:44:50;;;;;;;3.70;2.85;;;27.20;39.30;;;;;;8261155;28;20030;-51
2021/06/17 03:48:53;;;;;;;3.42;3.13;;;27.20;39.30;;;;;;8260395;28;20042;-52
2021/06/17 03:52:56;;;;;;;4.32;2.83;;;27.20;39.30;;;;;;8258318;28;20046;-49
2021/06/17 03:57:03;;;;;;;3.60;3.13;;;27.20;39.30;;;;;;8260509;28;20451;-50
2021/06/17 04:01:06;;;;;;;2.90;2.70;;;27.20;39.30;;;;;;8241569;28;20511;-49
2021/06/17 04:05:08;;;;;;;3.20;2.90;;;27.20;39.40;;;;;;8257647;28;20045;-53
2021/06/17 04:09:09;;;;;;;3.20;2.90;;;27.10;39.30;;;;;;8244667;28;20061;-53
2021/06/17 04:13:11;;;;;;;;;;;27.20;39.40;;;;;;8228928;28;20035;-49
2021/06/17 04:17:19;;;;;;;3.10;2.80;;;27.10;39.30;;;;;;8238135;28;19913;-52
2021/06/17 04:21:21;;;;;;;3.95;3.28;;;27.10;39.30;;;;;;8261519;28;20387;-52
2021/06/17 04:25:22;;;;;;;3.40;2.95;;;27.10;39.30;;;;;;8258774;28;20535;-52
2021/06/17 04:29:23;;;;;;;4.88;3.10;;;27.10;39.30;;;;;;8260028;28;20042;-50
2021/06/17 04:33:25;;;;;;;;;;;27.10;39.30;;;;;;8259650;28;20056;-51
2021/06/17 04:37:27;;;;;;;3.35;3.05;;;27.10;39.40;;;;;;8236819;28;19922;-51
2021/06/17 04:41:27;;;;;;;3.20;2.90;;;27.00;39.30;;;;;;8237809;28;20509;-53
2021/06/17 04:45:29;;;;;;;;;;;27.00;39.30;;;;;;8260007;28;20050;-51
2021/06/17 04:49:32;;;;;;;3.72;3.05;;;27.00;39.30;;;;;;8233270;28;19922;-53
2021/06/17 04:53:34;;;;;;;3.47;3.17;;;27.00;39.30;;;;;;8266894;28;20042;-50
2021/06/17 04:57:35;;;;;;;3.50;3.13;;;27.00;39.30;;;;;;8265051;28;20129;-50
2021/06/17 05:01:39;;;;;;;;;;;27.00;39.30;;;;;;8264018;28;20579;-51
2021/06/17 05:05:40;;;;;;;3.47;3.17;;;27.00;39.30;;;;;;8265793;28;19921;-50
2021/06/17 05:14:00;;;;;;;4.43;3.33;;;27.00;39.40;;;;;;8262125;28;20006;-52
2021/06/17 05:18:00;;;;;;;;;;;27.00;39.30;;;;;;8248357;28;20117;-51
2021/06/17 05:22:02;;;;;;;4.53;3.17;;;27.00;39.20;;;;;;8265611;28;19909;-54
2021/06/17 05:26:03;;;;;;;3.53;2.90;;;27.10;39.00;;;;;;8262824;28;20052;-51
2021/06/17 05:30:05;;;;;;;;;;;27.20;38.90;;;;;;8255060;28;20473;-53
2021/06/17 05:34:05;;;;;;;3.50;3.10;;;27.30;38.60;;;;;;8255935;28;19924;-50
2021/06/17 05:38:06;;;;;;;;;;;27.50;38.60;;;;;;8232037;28;20031;-51
2021/06/17 05:42:07;;;;;;;4.17;3.00;;;27.60;38.30;;;;;;8232471;28;19910;-50
2021/06/17 05:46:08;;;;;;;3.67;3.03;;;27.60;38.20;;;;;;8255222;28;20411;-49
2021/06/17 05:50:09;;;;;;;;;;;27.60;38.20;;;;;;8267735;28;20044;-52
2021/06/17 05:54:09;;;;;;;4.87;3.00;;;27.60;38.20;;;;;;8264334;28;19917;-52
2021/06/17 05:58:10;;;;;;;;;;;27.50;38.20;;;;;;8264701;28;20033;-50
2021/06/17 06:02:11;;;;;;;3.15;2.80;;;27.50;38.30;;;;;;8262005;28;20390;-51
2021/06/17 06:06:11;;;;;;;3.17;2.85;;;27.40;38.30;;;;;;8252481;28;20038;-51
2021/06/17 06:10:14;;;;;;;3.80;3.00;;;27.40;38.50;;;;;;8231810;28;20082;-52
2021/06/17 06:14:14;;;;;;;4.00;3.40;;;27.30;38.50;;;;;;8230179;28;20079;-53
2021/06/17 06:18:15;;;;;;;;;;;27.30;38.60;;;;;;8248428;28;20034;-52
2021/06/17 06:22:16;;;;;;;3.97;3.00;;;27.30;38.70;;;;;;8266432;28;19925;-52
2021/06/17 06:26:16;;;;;;;3.42;3.13;;;27.20;38.70;;;;;;8255233;28;20604;-54
2021/06/17 06:30:17;;;;;;;;;;;27.20;38.80;;;;;;8248315;28;20058;-52
2021/06/17 06:34:17;;;;;;;4.07;2.80;;;27.20;38.80;;;;;;8250506;28;19917;-51
2021/06/17 06:38:18;;;;;;;;;;;27.20;38.90;;;;;;8263811;28;20050;-50
2021/06/17 06:42:19;;;;;;;3.93;3.03;;;27.20;38.90;;;;;;8267631;28;19918;-52
2021/06/17 06:46:19;;;;;;;4.53;3.20;;;27.10;38.80;;;;;;8236770;28;20146;-52
2021/06/17 06:50:20;;;;;;;;;;;27.10;38.80;;;;;;8263144;28;20042;-51
2021/06/17 06:54:21;;;;;;;5.65;3.05;;;27.10;38.80;;;;;;8262807;28;19997;-52
2021/06/17 06:58:21;;;;;;;;;;;27.10;38.80;;;;;;8241796;28;20026;-51
2021/06/17 07:02:22;;;;;;;3.40;3.10;;;27.00;38.90;;;;;;8253060;28;20350;-52
2021/06/17 07:06:23;;;;;;;;;;;27.10;39.00;;;;;;8230845;28;20046;-52
2021/06/17 07:10:23;;;;;;;3.53;3.20;;;27.00;39.00;;;;;;8253978;28;20007;-52
2021/06/17 07:14:24;;;;;;;;;;;27.00;39.10;;;;;;8263617;28;20069;-49
2021/06/17 07:18:24;;;;;;;3.80;3.07;;;27.00;39.20;;;;;;8250739;28;19910;-50
2021/06/17 07:22:25;;;;;;;;;;;27.00;39.10;;;;;;8260589;28;20101;-48
2021/06/17 07:26:29;;;;;;;3.90;3.33;;;27.00;39.20;;;;;;8258345;28;20360;-49
2021/06/17 07:30:30;;;;;;;3.67;3.35;;;27.00;39.30;;;;;;8261804;28;20496;-49
2021/06/17 07:34:30;;;;;;;4.00;3.28;;;27.00;39.30;;;;;;8264049;28;20031;-49
2021/06/17 07:38:31;;;;;;;;;;;27.00;39.30;;;;;;8261250;28;20031;-48
2021/06/17 07:42:31;;;;;;;4.03;3.47;;;27.00;39.30;;;;;;8242417;28;19914;-52
2021/06/17 07:46:32;;;;;;;;;;;27.00;39.30;;;;;;8254198;28;20412;-52
2021/06/17 07:50:33;;;;;;;3.33;2.63;;;27.00;39.30;;;;;;8254575;28;19968;-49
2021/06/17 07:54:33;;;;;;;;;;;27.00;39.30;;;;;;8247935;28;20070;-49
2021/06/17 07:58:34;;;;;;;3.53;3.23;;;27.00;39.30;;;;;;8235079;28;19914;-50
2021/06/17 08:02:35;;;;;;;;;;;27.00;39.40;;;;;;8250112;28;20035;-52
2021/06/17 08:06:35;;;;;;;3.47;3.00;;;27.00;39.30;;;;;;8247439;28;20371;-51
2021/06/17 08:10:36;;;;;;;;;;;27.00;39.30;;;;;;8263669;28;20495;-49
2021/06/17 08:14:36;;;;;;;4.30;3.90;;;27.00;39.30;;;;;;8248928;28;20414;-52
2021/06/17 08:18:37;;;;;;;;;;;27.10;39.30;;;;;;8247697;28;20411;-53
2021/06/17 08:22:39;;;;;;;3.90;3.40;;;27.10;39.40;;;;;;8257031;28;19914;-53
2021/06/17 08:26:39;;;;;;;3.72;3.35;;;27.10;39.40;;;;;;8263523;28;20057;-53
2021/06/17 08:30:40;;;;;;;;;;;27.10;39.50;;;;;;8260499;28;20034;-52
2021/06/17 08:34:41;;;;;;;3.70;3.40;;;27.10;39.60;;;;;;8234139;28;19957;-52
2021/06/17 08:38:42;;;;;;;;;;;27.10;39.60;;;;;;8260126;28;20054;-50
2021/06/17 08:42:43;;;;;;;5.80;3.63;;;27.10;39.60;;;;;;8244165;28;20359;-53
2021/06/17 08:46:44;;;;;;;5.20;3.40;;;27.10;39.70;;;;;;8250074;28;20051;-51
2021/06/17 08:50:44;;;;;;;;;;;27.20;39.80;;;;;;8227939;28;20169;-51
2021/06/17 08:54:46;;;;;;;3.53;3.17;;;27.10;39.60;;;;;;8227517;28;19918;-53
2021/06/17 08:58:46;;;;;;;4.05;3.42;;;27.10;39.70;;;;;;8254420;28;20027;-50
2021/06/17 09:02:54;;;;;;;;;;;27.20;40.20;;;;;;8264643;28;20046;-52
2021/06/17 09:07:02;;;;;;;4.07;3.67;;;27.20;40.10;;;;;;8258445;28;19983;-51
2021/06/17 09:11:04;;;;;;;3.58;3.20;;;27.20;40.40;;;;;;8246051;28;20042;-52
2021/06/17 09:15:05;;;;;;;4.28;3.40;;;27.20;40.50;;;;;;8259393;28;20035;-51
2021/06/17 09:19:06;;;;;;;;;;;27.20;40.20;;;;;;8263957;28;20031;-49
2021/06/17 09:23:30;;;;;;;4.87;3.50;;;27.20;40.30;;;;;;8257415;28;20283;-51
2021/06/17 09:27:40;;;;;;;5.55;3.33;;;27.20;40.00;;;;;;8259241;28;20057;-52
2021/06/17 09:31:42;;;;;;;4.28;3.67;;;27.20;39.70;;;;;;8257666;28;20559;-52
2021/06/17 09:35:57;;;;;;;4.50;3.35;;;27.30;39.70;;;;;;8247132;28;20039;-52
2021/06/17 09:39:59;;;;;;;4.05;3.30;;;27.30;40.00;;;;;;8256710;28;20044;-53
2021/06/17 09:44:01;;;;;;;3.45;3.08;;;27.30;39.80;;;;;;8264471;28;20038;-52
2021/06/17 09:48:02;;;;;;;4.68;2.80;;;27.40;39.80;;;;;;8264850;28;20050;-50
2021/06/17 09:52:02;;;;;;;;;;;27.40;39.80;;;;;;8265158;28;20031;-53
2021/06/17 09:56:03;;;;;;;3.33;3.03;;;27.40;39.90;;;;;;8238775;28;19968;-53
2021/06/17 10:00:11;;;;;;;;;;;27.40;39.80;;;;;;8254105;28;20038;-50
2021/06/17 10:04:14;;;;;;;2.85;2.55;;;27.40;39.70;;;;;;8255844;28;20056;-53
2021/06/17 10:08:15;;;;;;;3.22;2.92;;;27.40;39.70;;;;;;8262699;28;20141;-53
2021/06/17 10:12:18;;;;;;;3.20;2.90;;;27.50;39.80;;;;;;8255753;28;20035;-52
2021/06/17 10:16:19;;;;;;;3.50;3.20;;;27.50;39.70;;;;;;8259320;28;20034;-53
2021/06/17 10:20:20;;;;;;;;;;;27.50;39.60;;;;;;8264230;28;20038;-53
2021/06/17 10:24:23;;;;;;;3.37;2.90;;;27.50;39.70;;;;;;8263570;28;20326;-51
2021/06/17 10:28:44;;;;;;;3.20;2.92;;;27.50;39.80;;;;;;8261403;28;20142;-51
2021/06/17 10:32:47;;;;;;;3.33;3.03;;;27.50;40.50;;;;;;8263556;28;20062;-53
2021/06/17 10:37:14;;;;;;;3.35;3.05;;;27.60;39.70;;;;;;8247106;28;20455;-50
2021/06/17 10:41:14;;;;;;;2.72;2.53;;;27.60;39.90;;;;;;8256201;28;20039;-52
2021/06/17 10:45:27;;;;;;;;;;;27.60;39.60;;;;;;8231156;28;20443;-52
2021/06/17 10:50:06;;;;;;;3.20;2.90;;;27.60;39.60;;;;;;8228316;28;19922;-50
2021/06/17 10:54:26;;;;;;;3.20;2.90;;;27.70;39.70;;;;;;8245402;28;20133;-53
2021/06/17 10:58:45;;;;;;;2.63;2.42;;;27.70;39.70;;;;;;8258938;28;20097;-50
2021/06/17 11:02:45;;;;;;;3.40;2.83;;;27.70;39.60;;;;;;8234690;28;20051;-50
2021/06/17 11:06:49;;;;;;;;;;;27.70;39.90;;;;;;8230822;28;20047;-51
2021/06/17 11:11:07;;;;;;;4.25;3.53;;;27.80;39.60;;;;;;8257385;28;20314;-50
2021/06/17 11:15:11;;;;;;;3.90;3.47;;;27.70;39.50;;;;;;8246829;28;20039;-50
2021/06/17 11:19:13;;;;;;;3.40;3.10;;;27.70;40.00;;;;;;8253313;28;20040;-54
2021/06/17 11:23:16;;;;;;;3.42;3.05;;;27.80;39.80;;;;;;8257128;28;20031;-52
2021/06/17 11:27:26;;;;;;;3.05;2.75;;;27.80;39.70;;;;;;8229447;28;20511;-53
2021/06/17 11:31:42;;;;;;;3.50;3.20;;;27.80;39.70;;;;;;8229772;28;20031;-51
2021/06/17 11:36:02;;;;;;;3.47;3.10;;;27.90;39.60;;;;;;8261459;28;20487;-50
2021/06/17 11:40:03;;;;;;;3.58;2.90;;;27.90;39.60;;;;;;8257731;28;20081;-50
2021/06/17 11:44:05;;;;;;;3.60;3.30;;;27.90;39.50;;;;;;8231667;28;20403;-50
2021/06/17 11:48:07;;;;;;;2.85;2.53;;;27.90;39.60;;;;;;8244210;28;20518;-50
2021/06/17 11:52:27;;;;;;;3.78;3.20;;;27.90;39.50;;;;;;8261034;28;20027;-53
2021/06/17 11:56:30;;;;;;;3.10;2.80;;;27.90;40.00;;;;;;8259434;28;20416;-52
2021/06/17 12:00:33;;;;;;;2.90;2.65;;;27.90;39.50;;;;;;8261750;28;20065;-51
2021/06/17 12:04:52;;;;;;;4.47;3.80;;;28.00;39.60;;;;;;8260471;28;20451;-52
2021/06/17 12:09:08;;;;;;;3.33;3.03;;;28.00;39.60;;;;;;8241802;28;20061;-50
2021/06/17 12:13:10;;;;;;;2.95;2.58;;;28.00;39.70;;;;;;8242887;28;20546;-51
2021/06/17 12:17:12;;;;;;;3.70;3.40;;;28.00;39.50;;;;;;8258185;28;20038;-51
2021/06/17 12:21:29;;;;;;;3.50;2.90;;;28.00;39.60;;;;;;8264120;28;20030;-52
2021/06/17 12:25:34;;;;;;;3.30;2.97;;;28.00;39.50;;;;;;8228644;28;20046;-50
2021/06/17 12:29:35;;;;;;;3.28;2.97;;;28.10;39.60;;;;;;8232607;28;20054;-50
2021/06/17 12:33:35;;;;;;;3.67;3.38;;;28.10;39.50;;;;;;8226236;28;20062;-52
2021/06/17 12:38:00;;;;;;;3.40;3.10;;;28.10;39.60;;;;;;8227806;28;20034;-51
2021/06/17 12:42:11;;;;;;;3.78;3.10;;;28.10;39.60;;;;;;8264542;28;20030;-53
2021/06/17 12:46:13;;;;;;;3.22;2.75;;;28.10;39.50;;;;;;8224202;28;20046;-54
2021/06/17 12:54:22;;;;;;;;;;;28.10;39.60;;;;;;8246847;28;20046;-53
2021/06/17 12:58:23;;;;;;;3.20;2.90;;;28.10;39.50;;;;;;8232129;28;20286;-53
2021/06/17 13:02:27;;;;;;;4.00;2.85;;;28.20;39.50;;;;;;8264122;28;20042;-53
2021/06/17 13:06:38;;;;;;;3.35;3.05;;;28.20;39.50;;;;;;8259604;28;20058;-51
2021/06/17 13:10:49;;;;;;;3.53;3.22;;;28.20;39.40;;;;;;8254514;28;20035;-54
2021/06/17 13:15:09;;;;;;;3.28;2.97;;;28.20;39.40;;;;;;8230831;28;20130;-51
2021/06/17 13:19:11;;;;;;;3.72;3.25;;;28.20;39.40;;;;;;8233765;28;20038;-50
2021/06/17 13:23:19;;;;;;;3.63;3.10;;;28.20;39.40;;;;;;8266803;28;20035;-50
2021/06/17 13:27:21;;;;;;;3.78;3.42;;;28.30;39.40;;;;;;8282219;28;20069;-54
2021/06/17 13:31:31;;;;;;;4.03;3.30;;;28.30;39.40;;;;;;8242929;28;20042;-54
2021/06/17 13:35:32;;;;;;;3.20;2.90;;;28.30;39.40;;;;;;8264061;28;20040;-53
2021/06/17 13:39:33;;;;;;;3.50;3.20;;;28.30;39.40;;;;;;8264836;28;20483;-53
2021/06/17 13:43:34;;;;;;;3.53;3.13;;;28.40;39.40;;;;;;8267599;28;20113;-50
2021/06/17 13:47:35;;;;;;;3.95;3.10;;;28.30;39.30;;;;;;8250069;28;20046;-53
2021/06/17 13:51:35;;;;;;;3.05;2.85;;;28.40;39.30;;;;;;8245616;28;20043;-53
2021/06/17 13:55:37;;;;;;;4.43;3.55;;;28.40;39.30;;;;;;8254358;28;20027;-51
2021/06/17 13:59:41;;;;;;;4.07;3.67;;;28.40;39.30;;;;;;8224902;28;20040;-54
2021/06/17 14:03:41;;;;;;;4.68;3.17;;;28.40;39.30;;;;;;8228032;28;20038;-54
2021/06/17 14:07:43;;;;;;;3.50;3.20;;;28.40;39.20;;;;;;8261120;28;20074;-51
2021/06/17 14:11:44;;;;;;;3.38;3.05;;;28.40;39.20;;;;;;8285406;28;20137;-50
2021/06/17 14:15:44;;;;;;;3.67;3.38;;;28.50;39.30;;;;;;8264607;28;20125;-52
2021/06/17 14:19:45;;;;;;;3.95;3.55;;;28.50;39.20;;;;;;8269115;28;20041;-52
2021/06/17 14:23:45;;;;;;;4.40;3.15;;;28.50;39.20;;;;;;8272019;28;20125;-50
2021/06/17 14:27:46;;;;;;;3.83;3.22;;;28.50;39.20;;;;;;8242511;28;20081;-51
2021/06/17 14:31:47;;;;;;;3.60;3.10;;;28.50;39.10;;;;;;8257704;28;20030;-50
2021/06/17 14:35:47;;;;;;;3.60;3.10;;;28.50;39.20;;;;;;8266694;28;20391;-54
2021/06/17 14:39:48;;;;;;;3.45;3.15;;;28.50;39.20;;;;;;8263117;28;20100;-54
2021/06/17 14:43:48;;;;;;;3.58;3.15;;;28.60;39.20;;;;;;8261026;28;20089;-53
2021/06/17 14:47:49;;;;;;;3.53;3.20;;;28.60;39.20;;;;;;8254670;28;20085;-52
2021/06/17 14:51:50;;;;;;;3.83;3.15;;;28.60;39.20;;;;;;8277185;28;20495;-53
2021/06/17 14:55:50;;;;;;;3.65;3.25;;;28.60;39.20;;;;;;8247173;28;20034;-51
2021/06/17 14:59:51;;;;;;;3.53;3.05;;;28.60;39.20;;;;;;8269723;28;20388;-52
2021/06/17 15:03:51;;;;;;;4.10;3.58;;;28.60;39.20;;;;;;8262766;28;20046;-49
2021/06/17 15:07:52;;;;;;;3.95;3.33;;;28.60;39.10;;;;;;8288020;28;20092;-53
2021/06/17 15:11:53;;;;;;;4.97;3.92;;;28.60;39.10;;;;;;8253254;28;20043;-52
2021/06/17 15:15:53;;;;;;;4.00;3.40;;;28.70;39.10;;;;;;8250764;28;20038;-51
2021/06/17 15:19:54;;;;;;;4.20;3.80;;;28.70;39.20;;;;;;8266088;28;20030;-51
2021/06/17 15:23:54;;;;;;;4.28;3.50;;;28.70;39.20;;;;;;8269936;28;20499;-52
2021/06/17 15:27:55;;;;;;;3.72;3.33;;;28.70;39.20;;;;;;8266001;28;20054;-51
2021/06/17 15:31:55;;;;;;;3.70;3.40;;;28.70;39.70;;;;;;8257797;28;20038;-51
2021/06/17 15:35:56;;;;;;;3.95;3.50;;;28.70;39.10;;;;;;8256062;28;20038;-52
2021/06/17 15:39:56;;;;;;;4.28;3.83;;;28.70;39.10;;;;;;8239955;28;20126;-53
2021/06/17 15:43:57;;;;;;;5.07;3.63;;;28.70;39.20;;;;;;8203273;28;20500;-53
2021/06/17 15:47:58;;;;;;;4.38;3.90;;;28.70;39.20;;;;;;8227095;28;20415;-51
2021/06/17 15:51:58;;;;;;;4.85;3.72;;;28.70;39.10;;;;;;8228800;28;20150;-53
2021/06/17 15:55:59;;;;;;;4.10;3.50;;;28.70;39.10;;;;;;8217348;28;20045;-53
2021/06/17 16:00:00;;;;;;;4.32;3.42;;;28.70;39.20;;;;;;8260959;28;20108;-53
2021/06/17 16:04:00;;;;;;;3.92;3.53;;;28.70;39.10;;;;;;8242985;28;20039;-53
2021/06/17 16:08:01;;;;;;;4.10;3.53;;;28.70;39.20;;;;;;8232768;28;20038;-53
2021/06/17 16:12:02;;;;;;;4.35;3.63;;;28.80;39.20;;;;;;8259801;28;20030;-53
2021/06/17 16:16:02;;;;;;;4.78;3.80;;;28.80;39.20;;;;;;8260473;28;20522;-54
2021/06/17 16:20:04;;;;;;;4.85;4.00;;;28.80;39.10;;;;;;8256331;28;20110;-53
2021/06/17 16:24:05;;;;;;;4.28;3.88;;;28.80;39.00;;;;;;8243207;28;20035;-52
2021/06/17 16:28:06;;;;;;;4.70;4.20;;;28.80;39.20;;;;;;8236954;28;20049;-52
2021/06/17 16:32:07;;;;;;;4.78;3.88;;;28.80;39.10;;;;;;8257676;28;20043;-50
2021/06/17 16:36:07;;;;;;;5.10;4.45;;;28.80;39.20;;;;;;8245762;28;20034;-50
2021/06/17 16:40:10;;;;;;;5.05;4.00;;;28.80;39.10;;;;;;8254770;28;20031;-53
2021/06/17 16:44:13;;;;;;;5.75;4.63;;;28.80;39.00;;;;;;8259060;28;20373;-52
2021/06/17 16:48:14;;;;;;;4.90;4.15;;;28.80;39.00;;;;;;8260974;28;20046;-53
2021/06/17 16:52:16;;;;;;;4.65;4.07;;;28.80;39.10;;;;;;8241225;28;20035;-51
2021/06/17 16:56:16;;;;;;;5.43;4.57;;;28.80;39.10;;;;;;8271100;28;20031;-53
2021/06/17 17:00:19;;;;;;;5.85;4.65;;;28.80;38.90;;;;;;8252464;28;20108;-51
2021/06/17 17:04:19;;;;;;;5.15;4.25;;;28.80;39.10;;;;;;8263014;28;20042;-53
2021/06/17 17:08:20;;;;;;;5.05;4.05;;;28.80;39.00;;;;;;8265359;28;20058;-53
2021/06/17 17:12:20;;;;;;;5.25;4.75;;;28.80;39.10;;;;;;8270107;28;20046;-53
2021/06/17 17:16:21;;;;;;;4.78;4.15;;;28.80;39.60;;;;;;8263940;28;20048;-50
2021/06/17 17:20:22;;;;;;;4.90;4.40;;;28.80;39.10;;;;;;8265564;28;20395;-51
2021/06/17 17:24:23;;;;;;;5.28;4.70;;;28.80;39.10;;;;;;8264323;28;20129;-54
2021/06/17 17:28:24;;;;;;;5.85;4.93;;;28.80;39.20;;;;;;8260492;28;20145;-52
2021/06/17 17:32:25;;;;;;;6.07;4.70;;;28.80;39.20;;;;;;8237038;28;20038;-52
2021/06/17 17:36:25;;;;;;;4.85;4.20;;;28.80;39.20;;;;;;8250512;28;20050;-52
2021/06/17 17:40:26;;;;;;;4.95;4.40;;;28.80;39.20;;;;;;8249140;28;20042;-52
2021/06/17 17:44:28;;;;;;;6.45;4.85;;;28.80;39.20;;;;;;8265056;28;20026;-54
2021/06/17 17:48:28;;;;;;;4.70;4.18;;;28.80;39.30;;;;;;8269341;28;20050;-53
2021/06/17 17:52:29;;;;;;;5.45;4.50;;;28.80;39.20;;;;;;8258683;28;20035;-53
2021/06/17 17:56:29;;;;;;;5.38;4.32;;;28.80;39.30;;;;;;8243012;28;20066;-52
2021/06/17 18:00:30;;;;;;;5.53;4.55;;;28.80;39.30;;;;;;8245695;28;20050;-53
2021/06/17 18:04:31;;;;;;;5.53;4.93;;;28.80;39.40;;;;;;8259118;28;20533;-54
2021/06/17 18:08:31;;;;;;;5.90;4.82;;;28.80;39.70;;;;;;8255967;28;20046;-53
2021/06/17 18:12:32;;;;;;;5.53;4.57;;;28.80;39.40;;;;;;8232227;28;20039;-53
2021/06/17 18:17:02;;;;;;;5.97;4.93;;;28.80;39.60;;;;;;8257014;28;20049;-54
2021/06/17 18:21:02;;;;;;;5.38;4.88;;;28.70;39.70;;;;;;8264058;28;20093;-52
2021/06/17 18:25:03;;;;;;;5.10;4.60;;;28.70;39.70;;;;;;8268091;28;20475;-52
2021/06/17 18:29:04;;;;;;;5.95;5.35;;;28.70;39.70;;;;;;8262548;28;20427;-52
2021/06/17 18:33:05;;;;;;;6.22;4.72;;;28.70;39.80;;;;;;8248516;28;20389;-53
2021/06/17 18:37:05;;;;;;;6.45;4.97;;;28.70;39.90;;;;;;8254301;28;20492;-54
2021/06/17 18:41:06;;;;;;;5.03;4.53;;;28.70;40.30;;;;;;8254618;28;20037;-54
2021/06/17 18:45:07;;;;;;;5.45;4.32;;;28.70;40.30;;;;;;8235201;28;20027;-54
2021/06/17 18:49:09;;;;;;;6.65;5.60;;;28.60;40.30;;;;;;8230550;28;20466;-53
2021/06/17 18:53:11;;;;;;;6.53;5.20;;;28.60;40.60;;;;;;8260591;28;20530;-53
2021/06/17 18:57:16;;;;;;;6.50;4.45;;;28.70;40.90;;;;;;8246351;28;20027;-53
2021/06/17 19:01:22;;;;;;;6.15;4.88;;;28.60;40.70;;;;;;8233284;28;20039;-50
2021/06/17 19:05:23;;;;;;;5.97;5.03;;;28.60;40.80;;;;;;8230772;28;20047;-54
2021/06/17 19:09:24;;;;;;;5.32;4.57;;;28.60;40.90;;;;;;8247439;28;20427;-54
2021/06/17 19:13:25;;;;;;;6.53;5.30;;;28.60;41.30;;;;;;8258250;28;20026;-53
2021/06/17 19:17:26;;;;;;;6.65;5.32;;;28.70;41.40;;;;;;8229671;28;20046;-53
2021/06/17 19:21:26;;;;;;;6.63;5.60;;;28.70;41.30;;;;;;8234488;28;20085;-52
2021/06/17 19:25:27;;;;;;;5.97;5.35;;;28.60;41.40;;;;;;8237654;28;20061;-53
2021/06/17 19:29:28;;;;;;;6.32;5.45;;;28.60;41.40;;;;;;8237705;28;20130;-50
2021/06/17 19:33:29;;;;;;;8.10;5.57;;;28.60;41.30;;;;;;8229514;28;20424;-52
2021/06/17 19:37:29;;;;;;;7.03;5.30;;;28.60;41.10;;;;;;8232135;28;20400;-51
2021/06/17 19:41:30;;;;;;;5.90;5.30;;;28.60;41.10;;;;;;8229546;28;20567;-51
2021/06/17 19:45:31;;;;;;;6.43;5.82;;;28.60;41.10;;;;;;8247537;28;20395;-53
2021/06/17 19:49:31;;;;;;;6.47;5.07;;;28.50;41.00;;;;;;8259573;28;20058;-52
2021/06/17 19:53:34;;;;;;;6.20;4.90;;;28.60;41.00;;;;;;8254748;28;20031;-52
2021/06/17 19:57:35;;;;;;;6.15;4.97;;;28.50;40.70;;;;;;8247744;28;20038;-53
2021/06/17 20:01:37;;;;;;;6.57;5.57;;;28.60;40.90;;;;;;8240331;28;20066;-52
2021/06/17 20:05:42;;;;;;;9.65;5.35;;;28.60;41.00;;;;;;8261077;28;20061;-53
2021/06/17 20:09:44;;;;;;;8.40;5.47;;;28.60;41.00;;;;;;8260213;28;20069;-53
2021/06/17 20:13:45;;;;;;;6.15;5.05;;;28.50;40.80;;;;;;8263284;28;20050;-52
2021/06/17 20:17:45;;;;;;;6.03;5.03;;;28.50;40.80;;;;;;8260435;28;20045;-50
2021/06/17 20:21:48;;;;;;;6.22;5.63;;;28.50;40.80;;;;;;8260117;28;20031;-51
2021/06/17 20:25:48;;;;;;;5.95;5.30;;;28.50;40.70;;;;;;8258496;28;20492;-50
2021/06/17 20:29:50;;;;;;;6.43;5.03;;;28.50;40.70;;;;;;8264447;28;20046;-53
2021/06/17 20:33:50;;;;;;;6.43;5.40;;;28.50;40.60;;;;;;8260280;28;20038;-54
2021/06/17 20:37:52;;;;;;;6.93;4.93;;;28.50;40.60;;;;;;8258749;28;20038;-52
2021/06/17 20:41:53;;;;;;;5.43;4.75;;;28.50;40.40;;;;;;8259948;28;20069;-50
2021/06/17 20:45:53;;;;;;;6.70;5.10;;;28.50;40.40;;;;;;8260050;28;20034;-52
2021/06/17 20:49:54;;;;;;;6.57;4.80;;;28.50;40.30;;;;;;8257409;28;20031;-52
2021/06/17 20:53:54;;;;;;;5.97;5.05;;;28.50;40.30;;;;;;8227501;28;20039;-53
2021/06/17 20:57:55;;;;;;;6.13;5.20;;;28.50;40.30;;;;;;8249291;28;20132;-54
2021/06/17 21:01:57;;;;;;;7.60;5.20;;;28.50;40.30;;;;;;8253142;28;20074;-52
2021/06/17 21:05:57;;;;;;;6.13;5.25;;;28.50;40.30;;;;;;8246013;28;20073;-51
2021/06/17 21:09:58;;;;;;;5.50;4.65;;;28.40;40.30;;;;;;8259618;28;20050;-53
2021/06/17 21:13:59;;;;;;;6.35;4.97;;;28.40;40.30;;;;;;8257881;28;20045;-53
2021/06/17 21:18:10;;;;;;;8.25;5.30;;;28.40;40.40;;;;;;8251078;28;20031;-53
2021/06/17 21:22:11;;;;;;;6.05;4.95;;;28.40;40.30;;;;;;8228180;28;20039;-53
2021/06/17 21:26:11;;;;;;;7.35;5.70;;;28.40;40.30;;;;;;8228710;28;20106;-52
2021/06/17 21:30:12;;;;;;;8.50;5.97;;;28.40;40.30;;;;;;8242718;28;20050;-51